Saint Anne, Missouri
Current Conditions -  °F | °C
As of 2:51 AM on Friday 31 Oct 2014 (Local Time) from KSTL Reporting Station
Scattered Clouds Scattered Clouds  
Wind Chill: 43°   Ceiling: Unl
Heat Index: 47°   Visibility: 7mi
Dew Point: 44°   Wind: 8mph
Humidity: 90%   Direction: 320°NW
Pressure: 30.08"   Gusts: NA
Location:  38.7263°N, 90.3885°W
Report Text: KSTL 310751Z 32007KT 7SM FEW100 SCT130 08/07 A3008 RMK AO2 SLP185 T00830067
Loading
Personal Weather Stations






























Interactive Weather Map
Tropical Storm Tracking
New forecast layout! Learn more

10-Day Weather Forecast

Advertisements
Track Severe Weather on mobile